createdAt,value
2019-01-02T00:01:41.858Z,5.00
2019-01-02T00:04:11.016Z,5.10
2019-01-02T00:06:39.450Z,5.10
2019-01-02T00:09:08.698Z,5.10
2019-01-02T00:11:37.124Z,5.10
2019-01-02T00:14:05.871Z,5.00
2019-01-02T00:16:34.280Z,5.00
2019-01-02T00:19:03.024Z,5.00
2019-01-02T00:21:31.728Z,5.00
2019-01-02T00:24:00.158Z,5.00
2019-01-02T00:26:29.188Z,4.90
2019-01-02T00:28:57.876Z,4.90
2019-01-02T00:31:26.694Z,4.90
2019-01-02T00:33:55.100Z,4.90
2019-01-02T00:36:24.360Z,5.00
2019-01-02T00:38:52.804Z,5.10
2019-01-02T00:41:21.220Z,5.10
2019-01-02T00:43:50.030Z,5.00
2019-01-02T00:46:18.818Z,5.00
2019-01-02T00:48:47.302Z,5.00
2019-01-02T00:51:15.708Z,5.00
2019-01-02T00:53:44.294Z,5.00
2019-01-02T00:56:12.704Z,4.90
2019-01-02T00:58:41.392Z,4.90
2019-01-02T01:01:10.076Z,4.90
2019-01-02T01:03:38.505Z,4.90
2019-01-02T01:06:06.929Z,4.90
2019-01-02T01:08:35.735Z,4.90
2019-01-02T01:11:04.552Z,4.90
2019-01-02T01:13:32.960Z,5.00
2019-01-02T01:16:01.998Z,5.00
2019-01-02T01:18:30.459Z,5.10
2019-01-02T01:20:59.363Z,5.00
2019-01-02T01:23:27.796Z,5.10
2019-01-02T01:25:56.236Z,5.10
2019-01-02T01:28:25.027Z,5.10
2019-01-02T01:30:53.448Z,5.10
2019-01-02T01:33:22.592Z,5.10
2019-01-02T01:35:51.282Z,5.10
2019-01-02T01:38:19.786Z,5.10
2019-01-02T01:40:48.971Z,5.10
2019-01-02T01:43:17.423Z,5.00
2019-01-02T01:45:46.238Z,5.00
2019-01-02T01:48:14.664Z,5.00
2019-01-02T01:50:43.393Z,5.10
2019-01-02T01:53:12.488Z,5.10
2019-01-02T01:55:41.180Z,5.10
2019-01-02T01:58:09.861Z,5.10
2019-01-02T02:00:38.549Z,5.10
2019-01-02T02:03:07.359Z,5.10
2019-01-02T02:05:36.247Z,5.00
2019-01-02T02:08:04.678Z,4.90
2019-01-02T02:10:33.127Z,5.00
2019-01-02T02:13:02.016Z,5.00
2019-01-02T02:15:30.779Z,5.00
2019-01-02T02:17:59.472Z,5.00
2019-01-02T02:20:27.910Z,4.90
2019-01-02T02:22:56.351Z,4.90
2019-01-02T02:25:37.327Z,5.00
2019-01-02T02:28:05.770Z,5.00
2019-01-02T02:30:34.187Z,5.00
2019-01-02T02:33:02.615Z,5.10
2019-01-02T02:35:31.139Z,5.10
2019-01-02T02:37:59.936Z,5.00
2019-01-02T02:40:28.352Z,5.10
2019-01-02T02:42:56.796Z,5.00
2019-01-02T02:45:25.710Z,5.00
2019-01-02T02:47:54.503Z,4.90
2019-01-02T02:50:23.654Z,5.00
2019-01-02T02:52:52.557Z,5.10
2019-01-02T02:55:21.312Z,5.00
2019-01-02T02:57:49.745Z,5.00
2019-01-02T03:00:18.308Z,5.00
2019-01-02T03:02:47.080Z,5.10
2019-01-02T03:05:16.559Z,5.10
2019-01-02T03:07:45.374Z,5.10
2019-01-02T03:10:15.728Z,5.10
2019-01-02T03:12:44.634Z,5.10
2019-01-02T03:15:13.786Z,5.10
2019-01-02T03:17:42.203Z,5.10
2019-01-02T03:20:12.888Z,5.10
2019-01-02T03:22:41.692Z,5.20
2019-01-02T03:25:12.423Z,5.20
2019-01-02T03:27:41.307Z,5.20
2019-01-02T03:30:15.646Z,5.20
2019-01-02T03:32:44.720Z,5.30
2019-01-02T03:35:13.608Z,5.30
2019-01-02T03:37:42.292Z,5.40
2019-01-02T03:40:12.249Z,5.50
2019-01-02T03:42:41.015Z,5.50
2019-01-02T03:45:14.754Z,5.50
2019-01-02T03:47:43.198Z,5.60
2019-01-02T03:50:14.842Z,5.50
2019-01-02T03:52:43.264Z,5.50
2019-01-02T03:55:11.766Z,5.50
2019-01-02T03:57:40.212Z,5.50
2019-01-02T04:00:11.462Z,5.60
2019-01-02T04:02:40.216Z,5.60
2019-01-02T04:05:11.497Z,5.70
2019-01-02T04:07:41.058Z,5.80
2019-01-02T04:10:12.335Z,5.70
2019-01-02T04:12:40.762Z,5.70
2019-01-02T04:15:09.438Z,5.80
2019-01-02T04:17:37.875Z,5.80
2019-01-02T04:20:07.966Z,5.80
2019-01-02T04:22:36.385Z,5.80
2019-01-02T04:25:06.660Z,5.90
2019-01-02T04:27:35.100Z,5.90
2019-01-02T04:30:05.706Z,5.90
2019-01-02T04:32:34.132Z,6.00
2019-01-02T04:35:02.571Z,6.00
2019-01-02T04:37:31.367Z,6.10
2019-01-02T04:40:00.160Z,6.10
2019-01-02T04:42:28.644Z,6.10
2019-01-02T04:44:57.415Z,6.10
2019-01-02T04:47:25.859Z,6.10
2019-01-02T04:49:54.295Z,6.20
2019-01-02T04:52:22.730Z,6.20
2019-01-02T04:54:51.152Z,6.10
2019-01-02T04:57:19.615Z,6.10
2019-01-02T04:59:48.033Z,6.00
2019-01-02T05:02:16.476Z,6.00
2019-01-02T05:04:45.268Z,6.10
2019-01-02T05:07:13.677Z,6.10
2019-01-02T05:09:42.435Z,6.10
2019-01-02T05:12:10.860Z,6.10
2019-01-02T05:14:39.285Z,6.20
2019-01-02T05:17:07.707Z,6.10
2019-01-02T05:19:36.143Z,6.20
2019-01-02T05:22:04.556Z,6.10
2019-01-02T05:24:32.978Z,6.10
2019-01-02T05:27:01.707Z,6.10
2019-01-02T05:29:30.150Z,6.10
2019-01-02T05:31:58.804Z,6.10
2019-01-02T05:34:27.236Z,6.10
2019-01-02T05:36:55.660Z,6.10
2019-01-02T05:39:24.372Z,6.10
2019-01-02T05:41:53.175Z,6.10
2019-01-02T05:44:21.600Z,6.10
2019-01-02T05:46:50.053Z,6.00
2019-01-02T05:49:18.545Z,6.10
2019-01-02T05:51:47.324Z,6.00
2019-01-02T05:54:15.744Z,6.00
2019-01-02T05:56:44.164Z,5.90
2019-01-02T05:59:12.591Z,5.90
2019-01-02T06:01:41.352Z,5.90
2019-01-02T06:04:09.775Z,5.80
2019-01-02T06:06:38.195Z,5.70
2019-01-02T06:09:07.105Z,5.70
2019-01-02T06:11:35.533Z,5.80
2019-01-02T06:14:04.044Z,5.70
2019-01-02T06:16:32.752Z,5.60
2019-01-02T06:19:01.178Z,5.50
2019-01-02T06:21:29.690Z,5.50
2019-01-02T06:23:58.104Z,5.50
2019-01-02T06:26:26.543Z,5.50
2019-01-02T06:28:54.978Z,5.50
2019-01-02T06:31:23.759Z,5.60
2019-01-02T06:33:52.258Z,5.60
2019-01-02T06:36:20.700Z,5.60
2019-01-02T06:38:49.117Z,5.60
2019-01-02T06:41:17.547Z,5.70
2019-01-02T06:43:45.986Z,5.70
2019-01-02T06:46:14.407Z,5.70
2019-01-02T06:48:42.841Z,5.60
2019-01-02T06:51:11.600Z,5.50
2019-01-02T06:53:40.026Z,5.60
2019-01-02T06:56:08.771Z,5.60
2019-01-02T06:58:37.203Z,5.70
2019-01-02T07:01:06.249Z,5.60
2019-01-02T07:03:34.672Z,5.60
2019-01-02T07:06:03.113Z,5.50
2019-01-02T07:08:31.795Z,5.50
2019-01-02T07:11:00.224Z,5.40
2019-01-02T07:13:28.645Z,5.30
2019-01-02T07:15:57.096Z,5.30
2019-01-02T07:18:25.521Z,5.30
2019-01-02T07:20:54.307Z,5.30
2019-01-02T07:23:22.750Z,5.20
2019-01-02T07:25:51.221Z,5.10
2019-01-02T07:28:19.688Z,5.10
2019-01-02T07:30:48.436Z,5.00
2019-01-02T07:33:17.531Z,5.00
2019-01-02T07:35:57.596Z,5.10
2019-01-02T07:38:48.889Z,5.00
2019-01-02T07:41:52.359Z,5.10
2019-01-02T07:44:39.011Z,5.20
2019-01-02T07:47:34.916Z,5.10
2019-01-02T07:50:28.881Z,5.00
2019-01-02T07:53:09.189Z,5.00
2019-01-02T07:55:43.596Z,5.10
2019-01-02T07:58:30.288Z,5.10
2019-01-02T08:01:21.506Z,5.20
2019-01-02T08:04:01.764Z,5.10
2019-01-02T08:06:48.546Z,5.10
2019-01-02T08:09:44.192Z,5.10
2019-01-02T08:12:27.908Z,5.20
2019-01-02T08:15:05.587Z,5.20
2019-01-02T08:17:54.807Z,5.30
2019-01-02T08:20:42.927Z,5.40
2019-01-02T08:23:34.784Z,5.40
2019-01-02T08:26:15.637Z,5.40
2019-01-02T08:29:05.153Z,5.50
2019-01-02T08:31:42.236Z,5.60
2019-01-02T08:34:13.759Z,5.60
2019-01-02T08:36:53.824Z,5.70
2019-01-02T08:39:46.268Z,5.70
2019-01-02T08:42:34.339Z,5.70
2019-01-02T08:45:06.152Z,5.80
2019-01-02T08:47:43.264Z,5.80
2019-01-02T08:50:36.085Z,5.70
2019-01-02T08:53:10.128Z,5.70
2019-01-02T08:55:47.311Z,5.70
2019-01-02T08:58:40.355Z,5.80
2019-01-02T09:01:14.422Z,5.80
2019-01-02T09:04:05.775Z,5.70
2019-01-02T09:06:46.254Z,5.80
2019-01-02T09:09:38.808Z,5.70
2019-01-02T09:12:22.333Z,5.70
2019-01-02T09:15:05.628Z,5.80
2019-01-02T09:17:55.398Z,5.80
2019-01-02T09:20:32.938Z,5.80
2019-01-02T09:23:28.756Z,5.70
2019-01-02T09:26:05.866Z,5.80
2019-01-02T09:28:51.804Z,5.80
2019-01-02T09:31:25.931Z,5.80
2019-01-02T09:34:12.264Z,5.90
2019-01-02T09:36:52.073Z,5.90
2019-01-02T09:39:42.063Z,5.80
2019-01-02T09:42:34.164Z,5.80
2019-01-02T09:45:11.450Z,5.80
2019-01-02T09:47:48.187Z,5.90
2019-01-02T09:50:25.939Z,6.00
2019-01-02T09:53:15.932Z,6.00
2019-01-02T09:56:06.546Z,6.00
2019-01-02T09:58:54.839Z,6.20
2019-01-02T10:01:38.239Z,6.20
2019-01-02T10:04:21.608Z,6.20
2019-01-02T10:06:55.643Z,6.30
2019-01-02T10:10:00.725Z,6.30
2019-01-02T10:12:38.064Z,6.50
2019-01-02T10:15:27.290Z,6.60
2019-01-02T10:18:21.568Z,6.60
2019-01-02T10:21:07.991Z,6.70
2019-01-02T10:23:42.360Z,6.80
2019-01-02T10:26:29.074Z,6.80
2019-01-02T10:29:09.294Z,6.70
2019-01-02T10:31:46.949Z,6.70
2019-01-02T10:34:21.292Z,6.70
2019-01-02T10:37:01.296Z,6.70
2019-01-02T10:39:45.008Z,6.80
2019-01-02T10:42:35.864Z,6.80
2019-01-02T10:45:07.370Z,6.90
2019-01-02T10:47:51.016Z,6.80
2019-01-02T10:50:37.413Z,7.00
2019-01-02T10:53:35.820Z,7.00
2019-01-02T10:56:10.342Z,7.10
2019-01-02T10:58:50.910Z,7.10
2019-01-02T11:01:43.547Z,7.00
2019-01-02T11:04:26.860Z,7.00
2019-01-02T11:07:06.519Z,7.10
2019-01-02T11:09:38.032Z,7.30
2019-01-02T11:12:27.767Z,7.50
2019-01-02T11:14:59.292Z,7.60
2019-01-02T11:17:47.342Z,7.70
2019-01-02T11:20:24.748Z,7.90
2019-01-02T11:23:17.100Z,8.30
2019-01-02T11:25:54.555Z,8.50
2019-01-02T11:28:38.314Z,8.30
2019-01-02T11:31:41.708Z,8.60
2019-01-02T11:34:37.667Z,8.80
2019-01-02T11:37:37.814Z,9.10
2019-01-02T11:40:24.265Z,9.20
2019-01-02T11:43:23.350Z,9.20
2019-01-02T11:45:51.764Z,9.40
2019-01-02T11:48:20.210Z,9.60
2019-01-02T11:50:48.650Z,9.60
2019-01-02T11:53:17.074Z,9.70
2019-01-02T11:55:45.523Z,10.00
2019-01-02T11:58:13.952Z,9.90
2019-01-02T12:00:42.379Z,9.70
2019-01-02T12:03:10.805Z,9.60
2019-01-02T12:05:39.235Z,9.70
2019-01-02T12:08:07.994Z,9.90
2019-01-02T12:10:36.432Z,10.20
2019-01-02T12:13:05.136Z,10.30
2019-01-02T12:15:33.940Z,10.50
2019-01-02T12:18:02.712Z,10.90
2019-01-02T12:20:31.148Z,11.10
2019-01-02T12:22:59.585Z,11.40
2019-01-02T12:25:28.055Z,11.10
2019-01-02T12:27:56.494Z,11.10
2019-01-02T12:30:25.239Z,11.40
2019-01-02T12:32:54.014Z,11.80
2019-01-02T12:35:22.457Z,12.20
2019-01-02T12:37:51.212Z,12.20
2019-01-02T12:40:19.660Z,11.90
2019-01-02T12:42:48.076Z,12.00
2019-01-02T12:45:16.515Z,12.30
2019-01-02T12:47:44.944Z,13.00
2019-01-02T12:50:13.390Z,13.10
2019-01-02T12:52:41.831Z,13.20
2019-01-02T12:55:10.561Z,13.60
2019-01-02T12:57:38.985Z,14.20
2019-01-02T13:00:11.254Z,14.60
2019-01-02T13:02:48.652Z,14.50
2019-01-02T13:05:25.671Z,14.30
2019-01-02T13:08:09.322Z,14.20
2019-01-02T13:10:40.846Z,14.20
2019-01-02T13:13:21.092Z,14.60
2019-01-02T13:15:52.594Z,14.20
2019-01-02T13:18:26.923Z,13.90
2019-01-02T13:21:04.359Z,14.10
2019-01-02T13:23:35.884Z,14.80
2019-01-02T13:26:21.882Z,15.00
2019-01-02T13:28:56.216Z,15.10
2019-01-02T13:31:59.860Z,15.20
2019-01-02T13:34:34.150Z,15.30
2019-01-02T13:37:14.026Z,15.80
2019-01-02T13:40:00.826Z,16.20
2019-01-02T13:42:38.735Z,16.20
2019-01-02T13:45:10.512Z,15.70
2019-01-02T13:47:50.820Z,15.20
2019-01-02T13:50:22.520Z,15.10
2019-01-02T13:52:51.059Z,15.30
2019-01-02T13:55:19.618Z,15.30
2019-01-02T13:57:48.128Z,15.80
2019-01-02T14:00:16.549Z,15.80
2019-01-02T14:02:45.003Z,15.80
2019-01-02T14:05:16.507Z,15.90
2019-01-02T14:07:44.947Z,15.60
2019-01-02T14:10:13.639Z,15.60
2019-01-02T14:12:42.091Z,15.80
2019-01-02T14:15:10.589Z,16.10
2019-01-02T14:17:39.038Z,16.30
2019-01-02T14:20:08.854Z,16.00
2019-01-02T14:22:37.575Z,16.10
2019-01-02T14:25:06.636Z,15.60
2019-01-02T14:27:35.052Z,15.60
2019-01-02T14:30:04.552Z,15.20
2019-01-02T14:32:33.016Z,14.90
2019-01-02T14:35:01.807Z,14.80
2019-01-02T14:37:30.229Z,14.30
2019-01-02T14:39:59.015Z,13.80
2019-01-02T14:42:27.784Z,13.70
2019-01-02T14:44:56.574Z,13.00
2019-01-02T14:47:25.025Z,12.00
2019-01-02T14:49:53.571Z,11.10
2019-01-02T14:52:22.040Z,10.80
2019-01-02T14:54:50.560Z,10.20
2019-01-02T14:57:18.986Z,9.60
2019-01-02T14:59:47.666Z,9.20
2019-01-02T15:02:16.102Z,8.90
2019-01-02T15:04:44.530Z,8.70
2019-01-02T15:07:13.352Z,8.40
2019-01-02T15:09:41.786Z,8.00
2019-01-02T15:12:10.226Z,7.80
2019-01-02T15:14:38.659Z,7.80
2019-01-02T15:17:07.447Z,7.50
2019-01-02T15:19:35.872Z,7.40
2019-01-02T15:22:04.990Z,7.30
2019-01-02T15:24:33.624Z,7.20
2019-01-02T15:27:02.036Z,7.00
2019-01-02T15:29:30.468Z,7.00
2019-01-02T15:31:58.907Z,6.90
2019-01-02T15:34:27.639Z,6.90
2019-01-02T15:36:56.075Z,6.80
2019-01-02T15:39:24.503Z,6.60
2019-01-02T15:41:53.276Z,6.50
2019-01-02T15:44:21.702Z,6.40
2019-01-02T15:46:50.138Z,6.40
2019-01-02T15:49:18.551Z,6.40
2019-01-02T15:51:47.064Z,6.30
2019-01-02T15:54:15.481Z,6.20
2019-01-02T15:56:43.897Z,6.00
2019-01-02T16:02:41.516Z,5.90
2019-01-02T16:05:10.215Z,5.80
2019-01-02T16:07:39.037Z,5.80
2019-01-02T16:10:08.975Z,5.80
2019-01-02T16:12:37.417Z,5.80
2019-01-02T16:15:06.719Z,5.70
2019-01-02T16:17:35.415Z,5.60
2019-01-02T16:20:04.928Z,5.70
2019-01-02T16:26:02.443Z,5.90
2019-01-02T16:28:30.874Z,5.80
2019-01-02T16:30:59.286Z,5.70
2019-01-02T16:33:28.047Z,5.70
2019-01-02T16:35:56.493Z,5.70
2019-01-02T16:38:25.217Z,5.60
2019-01-02T16:40:53.727Z,5.60
2019-01-02T16:43:22.195Z,5.60
2019-01-02T16:45:51.123Z,5.50
2019-01-02T16:48:19.685Z,5.50
2019-01-02T16:50:48.128Z,5.40
2019-01-02T16:53:16.578Z,5.40
2019-01-02T16:55:45.014Z,5.20
2019-01-02T16:58:13.451Z,5.20
2019-01-02T17:00:42.163Z,5.20
2019-01-02T17:03:10.630Z,5.10
2019-01-02T17:05:39.455Z,5.10
2019-01-02T17:08:08.227Z,5.00
2019-01-02T17:10:36.660Z,5.00
2019-01-02T17:13:05.395Z,4.90
2019-01-02T17:15:34.021Z,4.80
2019-01-02T17:18:02.468Z,4.80
2019-01-02T17:20:31.241Z,4.70
2019-01-02T17:22:59.923Z,4.70
2019-01-02T17:25:28.343Z,4.70
2019-01-02T17:27:57.105Z,4.60
2019-01-02T17:30:25.819Z,4.50
2019-01-02T17:32:54.230Z,4.40
2019-01-02T17:35:22.949Z,4.40
2019-01-02T17:37:51.438Z,4.40
2019-01-02T17:40:20.221Z,4.40
2019-01-02T17:42:48.656Z,4.30
2019-01-02T17:45:17.096Z,4.30
2019-01-02T17:47:45.546Z,4.20
2019-01-02T17:50:13.993Z,4.10
2019-01-02T17:52:42.439Z,4.20
2019-01-02T17:55:10.888Z,4.20
2019-01-02T17:57:39.376Z,4.10
2019-01-02T18:00:10.438Z,4.10
2019-01-02T18:02:38.883Z,4.10
2019-01-02T18:05:07.333Z,4.00
2019-01-02T18:07:36.075Z,4.00
2019-01-02T18:10:06.139Z,4.00
2019-01-02T18:12:34.572Z,3.90
2019-01-02T18:15:03.284Z,3.80
2019-01-02T18:17:32.062Z,3.80
2019-01-02T18:20:00.507Z,3.70
2019-01-02T18:22:28.930Z,3.70
2019-01-02T18:24:57.382Z,3.60
2019-01-02T18:27:26.189Z,3.60
2019-01-02T18:29:54.624Z,3.60
2019-01-02T18:32:23.083Z,3.50
2019-01-02T18:34:51.614Z,3.50
2019-01-02T18:37:20.085Z,3.50
2019-01-02T18:39:48.835Z,3.40
2019-01-02T18:42:17.577Z,3.40
2019-01-02T18:44:46.012Z,3.40
2019-01-02T18:47:14.426Z,3.30
2019-01-02T18:49:42.864Z,3.30
2019-01-02T18:52:11.615Z,3.20
2019-01-02T18:54:40.405Z,3.20
2019-01-02T18:57:08.864Z,3.10
2019-01-02T18:59:37.276Z,3.10
2019-01-02T19:02:05.693Z,3.10
2019-01-02T19:04:34.133Z,3.10
2019-01-02T19:07:02.918Z,3.10
2019-01-02T19:09:31.339Z,3.10
2019-01-02T19:11:59.784Z,3.10
2019-01-02T19:14:28.572Z,3.20
2019-01-02T19:16:56.996Z,3.30
2019-01-02T19:19:25.736Z,3.30
2019-01-02T19:21:54.528Z,3.40
2019-01-02T19:24:23.019Z,3.50
2019-01-02T19:26:51.541Z,3.50
2019-01-02T19:29:19.981Z,3.50
2019-01-02T19:31:48.422Z,3.60
2019-01-02T19:34:16.853Z,3.60
2019-01-02T19:36:45.285Z,3.70
2019-01-02T19:39:13.715Z,3.70
2019-01-02T19:41:42.477Z,3.70
2019-01-02T19:44:11.002Z,3.70
2019-01-02T19:46:39.733Z,3.80
2019-01-02T19:49:08.189Z,3.80
2019-01-02T19:51:37.814Z,3.80
2019-01-02T19:54:06.345Z,3.90
2019-01-02T19:56:35.107Z,3.80
2019-01-02T19:59:03.540Z,3.80
2019-01-02T20:01:31.977Z,3.70
2019-01-02T20:04:00.426Z,3.60
2019-01-02T20:06:28.851Z,3.60
2019-01-02T20:08:57.281Z,3.50
2019-01-02T20:11:25.713Z,3.50
2019-01-02T20:13:54.145Z,3.40
2019-01-02T20:16:22.953Z,3.30
2019-01-02T20:18:51.382Z,3.20
2019-01-02T20:21:19.911Z,3.20
2019-01-02T20:23:48.327Z,3.10
2019-01-02T20:26:16.767Z,3.10
2019-01-02T20:28:45.183Z,3.10
2019-01-02T20:31:13.623Z,3.00
2019-01-02T20:33:42.155Z,3.00
2019-01-02T20:36:10.911Z,3.00
2019-01-02T20:38:39.351Z,3.00
2019-01-02T20:41:07.783Z,3.00
2019-01-02T20:43:36.548Z,3.00
2019-01-02T20:46:05.240Z,2.90
2019-01-02T20:48:33.671Z,2.90
2019-01-02T20:51:02.091Z,2.90
2019-01-02T20:53:30.523Z,2.90
2019-01-02T20:55:58.945Z,2.90
2019-01-02T20:58:27.369Z,2.90
2019-01-02T21:00:55.822Z,2.90
2019-01-02T21:03:24.556Z,2.90
2019-01-02T21:05:53.164Z,2.90
2019-01-02T21:08:21.597Z,2.80
2019-01-02T21:10:50.020Z,2.80
2019-01-02T21:13:18.451Z,2.80
2019-01-02T21:15:46.953Z,2.70
2019-01-02T21:18:15.391Z,2.70
2019-01-02T21:20:43.843Z,2.70
2019-01-02T21:23:12.268Z,2.70
2019-01-02T21:25:40.867Z,2.80
2019-01-02T21:28:09.354Z,2.90
2019-01-02T21:30:37.782Z,2.90
2019-01-02T21:33:06.223Z,3.00
2019-01-02T21:35:34.970Z,3.10
2019-01-02T21:38:03.759Z,3.10
2019-01-02T21:40:32.173Z,3.10
2019-01-02T21:43:01.005Z,3.10
2019-01-02T21:45:29.811Z,3.10
2019-01-02T21:47:58.280Z,3.10
2019-01-02T21:50:26.703Z,3.20
2019-01-02T21:52:55.572Z,3.30
2019-01-02T21:55:24.112Z,3.30
2019-01-02T21:57:52.862Z,3.30
2019-01-02T22:00:21.480Z,3.40
2019-01-02T22:02:49.905Z,3.40
2019-01-02T22:05:18.318Z,3.30
2019-01-02T22:07:46.753Z,3.40
2019-01-02T22:10:15.451Z,3.40
2019-01-02T22:12:43.879Z,3.50
2019-01-02T22:15:12.303Z,3.40
2019-01-02T22:17:41.100Z,3.50
2019-01-02T22:20:09.533Z,3.50
2019-01-02T22:22:37.973Z,3.50
2019-01-02T22:25:06.914Z,3.50
2019-01-02T22:27:35.344Z,3.60
2019-01-02T22:30:04.732Z,3.50
2019-01-02T22:32:33.174Z,3.40
2019-01-02T22:35:01.617Z,3.30
2019-01-02T22:37:30.039Z,3.30
2019-01-02T22:39:58.495Z,3.20
2019-01-02T22:42:26.941Z,3.10
2019-01-02T22:44:55.621Z,3.00
2019-01-02T22:47:24.054Z,3.00
2019-01-02T22:49:52.579Z,2.90
2019-01-02T22:52:21.266Z,3.00
2019-01-02T22:54:49.688Z,2.90
2019-01-02T22:57:18.137Z,2.90
2019-01-02T22:59:46.574Z,2.80
2019-01-02T23:02:16.736Z,2.80
2019-01-02T23:05:02.120Z,2.70
2019-01-02T23:07:48.819Z,2.70
2019-01-02T23:10:19.245Z,2.70
2019-01-02T23:13:07.924Z,2.60
2019-01-02T23:15:55.795Z,2.60
2019-01-02T23:18:38.441Z,2.60
2019-01-02T23:21:14.766Z,2.60
2019-01-02T23:24:01.217Z,2.70
2019-01-02T23:26:47.700Z,2.60
2019-01-02T23:29:20.726Z,2.70
2019-01-02T23:32:00.305Z,2.70
2019-01-02T23:34:38.978Z,2.70
2019-01-02T23:37:09.066Z,2.80
2019-01-02T23:39:48.278Z,2.80
2019-01-02T23:42:18.372Z,2.80
2019-01-02T23:44:48.427Z,2.80
2019-01-02T23:47:27.693Z,2.90
2019-01-02T23:50:10.022Z,2.90
2019-01-02T23:52:52.814Z,2.90
2019-01-02T23:55:25.907Z,2.90
2019-01-02T23:58:12.562Z,2.90
